Welcome to Northern Hawkes Bay. New Zealand.
PWS Header
      nz Flag



Hit Counter


W3C Valid W3C Valid logo


    Wairoa

Select any of the Stations below to visit their websites.










Historic Data from Weather Underground
Select the location of interest below. Wairoa is the default. Please have patience, this Data is slow to load in.
Northern Hawkes Bay Historical Data
Daily Summary for August 26, 2017 Units:  Metric    English   Both
« Previous Day
Next Day »
Daily Weekly Monthly Yearly Custom
  High: Low: Average:
Temperature: 18.8 °C 5.3 °C 11.8 °C
Dew Point: 11.4 °C 4.8 °C 7.8 °C
Humidity: 97% 58% 78%
Wind Speed: 12.2km/h 0.0km/h 5.2km/h
Wind Gust: 19.5km/h - -
Wind- - SW
Pressure: 1030.7 hPa 1027.0 hPa -
Precipitation: 0.0 mm    
Historical Graphs
 
 
Tabular Data for August 26, 2017
Time Temperature Dew Point Pressure Wind Wind Speed Wind Gust Humidity Rainfall Rate (Hourly) solar
00:00 9.0 °C 6.1 °C 1030.4 hPa WNW 5.0 km/h 6.1 km/h 82% 0.0 mm 0 W/m2
00:06 8.7 °C 6.3 °C 1030.0 hPa WNW 2.6 km/h 7.2 km/h 85% 0.0 mm 0 W/m2
00:11 8.5 °C 6.1 °C 1030.4 hPa NW 5.0 km/h 7.2 km/h 85% 0.0 mm 0 W/m2
00:16 8.4 °C 6.2 °C 1030.0 hPa WNW 3.5 km/h 7.2 km/h 86% 0.0 mm 0 W/m2
00:21 8.3 °C 6.1 °C 1030.4 hPa NW 5.0 km/h 7.2 km/h 86% 0.0 mm 0 W/m2
00:26 8.3 °C 6.3 °C 1030.4 hPa NW 5.0 km/h 7.2 km/h 87% 0.0 mm 0 W/m2
00:31 8.2 °C 6.2 °C 1030.4 hPa NW 3.5 km/h 7.2 km/h 87% 0.0 mm 0 W/m2
00:36 8.1 °C 6.1 °C 1030.4 hPa NW 3.5 km/h 6.1 km/h 87% 0.0 mm 0 W/m2
00:41 8.1 °C 6.1 °C 1030.0 hPa NW 3.5 km/h 6.1 km/h 87% 0.0 mm 0 W/m2
00:46 8.0 °C 6.1 °C 1030.4 hPa NW 5.0 km/h 6.1 km/h 88% 0.0 mm 0 W/m2
00:51 7.9 °C 6.1 °C 1030.4 hPa NW 3.5 km/h 6.1 km/h 88% 0.0 mm 0 W/m2
00:56 7.8 °C 6.1 °C 1030.4 hPa NW 5.0 km/h 7.2 km/h 89% 0.0 mm 0 W/m2
01:01 7.8 °C 6.1 °C 1030.4 hPa NW 3.5 km/h 7.2 km/h 89% 0.0 mm 0 W/m2
01:06 7.8 °C 6.3 °C 1030.4 hPa NW 2.6 km/h 7.2 km/h 90% 0.0 mm 0 W/m2
01:11 7.7 °C 6.2 °C 1030.4 hPa NW 3.5 km/h 6.1 km/h 90% 0.0 mm 0 W/m2
01:16 7.6 °C 6.1 °C 1030.4 hPa NW 2.6 km/h 6.1 km/h 90% 0.0 mm 0 W/m2
01:21 7.5 °C 5.9 °C 1030.4 hPa NW 3.5 km/h 6.1 km/h 90% 0.0 mm 0 W/m2
01:26 7.4 °C 6.1 °C 1030.0 hPa NW 3.5 km/h 6.1 km/h 91% 0.0 mm 0 W/m2
01:31 7.3 °C 5.9 °C 1030.0 hPa NW 3.5 km/h 6.1 km/h 91% 0.0 mm 0 W/m2
01:36 7.3 °C 5.9 °C 1030.0 hPa NW 3.5 km/h 6.1 km/h 91% 0.0 mm 0 W/m2
01:41 7.2 °C 5.8 °C 1030.0 hPa NW 3.5 km/h 6.1 km/h 91% 0.0 mm 0 W/m2
01:46 7.1 °C 5.7 °C 1030.0 hPa NW 3.5 km/h 5.0 km/h 91% 0.0 mm 0 W/m2
01:51 7.0 °C 5.6 °C 1030.0 hPa NW 3.5 km/h 6.1 km/h 91% 0.0 mm 0 W/m2
01:56 7.1 °C 5.9 °C 1030.0 hPa NW 5.0 km/h 7.2 km/h 92% 0.0 mm 0 W/m2
02:01 7.1 °C 5.9 °C 1030.0 hPa NW 3.5 km/h 7.2 km/h 92% 0.0 mm 0 W/m2
02:06 7.2 °C 6.0 °C 1030.4 hPa NW 5.0 km/h 7.2 km/h 92% 0.0 mm 0 W/m2
02:11 7.2 °C 6.0 °C 1030.0 hPa NW 5.0 km/h 7.2 km/h 92% 0.0 mm 0 W/m2
02:16 7.1 °C 5.9 °C 1030.0 hPa NW 6.1 km/h 9.7 km/h 92% 0.0 mm 0 W/m2
02:21 7.1 °C 5.9 °C 1029.7 hPa NW 3.5 km/h 9.7 km/h 92% 0.0 mm 0 W/m2
02:26 7.0 °C 5.8 °C 1029.7 hPa NNW 2.6 km/h 9.7 km/h 92% 0.0 mm 0 W/m2
02:31 6.8 °C 5.7 °C 1029.7 hPa North 1.1 km/h 5.0 km/h 93% 0.0 mm 0 W/m2
02:36 6.6 °C 5.6 °C 1029.7 hPa NNW 1.1 km/h 5.0 km/h 93% 0.0 mm 0 W/m2
02:41 6.4 °C 5.3 °C 1029.7 hPa NNW 2.6 km/h 3.5 km/h 93% 0.0 mm 0 W/m2
02:46 6.4 °C 5.3 °C 1029.7 hPa NW 2.6 km/h 6.1 km/h 93% 0.0 mm 0 W/m2
02:51 6.4 °C 5.5 °C 1029.7 hPa Calm   6.1 km/h 94% 0.0 mm 0 W/m2
02:56 6.5 °C 5.6 °C 1029.3 hPa NW 6.1 km/h 11.1 km/h 94% 0.0 mm 0 W/m2
03:01 6.7 °C 5.8 °C 1029.7 hPa NW 5.0 km/h 11.1 km/h 94% 0.0 mm 0 W/m2
03:06 6.8 °C 6.1 °C 1029.3 hPa NW 5.0 km/h 8.7 km/h 95% 0.0 mm 0 W/m2
03:11 6.9 °C 6.2 °C 1029.7 hPa NW 3.5 km/h 8.7 km/h 95% 0.0 mm 0 W/m2
03:16 6.8 °C 6.1 °C 1029.3 hPa NW 3.5 km/h 8.7 km/h 95% 0.0 mm 0 W/m2
03:21 6.7 °C 5.9 °C 1029.3 hPa NW 7.2 km/h 9.7 km/h 95% 0.0 mm 0 W/m2
03:26 6.6 °C 5.8 °C 1029.3 hPa NW 2.6 km/h 9.7 km/h 95% 0.0 mm 0 W/m2
03:31 6.6 °C 5.7 °C 1029.3 hPa NW 2.6 km/h 8.7 km/h 94% 0.0 mm 0 W/m2
03:36 6.6 °C 5.8 °C 1029.3 hPa NW 2.6 km/h 7.2 km/h 95% 0.0 mm 0 W/m2
03:41 6.4 °C 5.5 °C 1029.3 hPa NW 3.5 km/h 7.2 km/h 94% 0.0 mm 0 W/m2
03:46 6.4 °C 5.5 °C 1029.3 hPa NW 5.0 km/h 7.2 km/h 94% 0.0 mm 0 W/m2
03:51 6.4 °C 5.7 °C 1029.3 hPa NW 5.0 km/h 7.2 km/h 95% 0.0 mm 0 W/m2
03:56 6.4 °C 5.7 °C 1029.3 hPa NW 3.5 km/h 7.2 km/h 95% 0.0 mm 0 W/m2
04:01 6.4 °C 5.7 °C 1029.3 hPa NW 3.5 km/h 8.7 km/h 95% 0.0 mm 0 W/m2
04:06 6.4 °C 5.7 °C 1029.7 hPa NW 5.0 km/h 9.7 km/h 95% 0.0 mm 0 W/m2
04:11 6.5 °C 5.8 °C 1029.3 hPa WNW 5.0 km/h 9.7 km/h 95% 0.0 mm 0 W/m2
04:16 6.5 °C 5.8 °C 1029.3 hPa WNW 6.1 km/h 9.7 km/h 95% 0.0 mm 0 W/m2
04:21 6.5 °C 5.8 °C 1029.3 hPa NW 5.0 km/h 9.7 km/h 95% 0.0 mm 0 W/m2
04:26 6.4 °C 5.7 °C 1029.3 hPa NNW 2.6 km/h 9.7 km/h 95% 0.0 mm 0 W/m2
04:31 6.4 °C 5.7 °C 1029.3 hPa NNW 1.1 km/h 6.1 km/h 95% 0.0 mm 0 W/m2
04:36 6.2 °C 5.4 °C 1029.3 hPa North 2.6 km/h 6.1 km/h 95% 0.0 mm 0 W/m2
04:41 6.1 °C 5.3 °C 1029.3 hPa North 2.6 km/h 5.0 km/h 95% 0.0 mm 0 W/m2
04:46 6.0 °C 5.3 °C 1029.3 hPa North 2.6 km/h 5.0 km/h 95% 0.0 mm 0 W/m2
04:51 5.9 °C 5.3 °C 1029.0 hPa NNW 2.6 km/h 5.0 km/h 96% 0.0 mm 0 W/m2
04:56 5.8 °C 5.2 °C 1029.3 hPa NNW 3.5 km/h 6.1 km/h 96% 0.0 mm 0 W/m2
05:01 5.7 °C 5.1 °C 1029.0 hPa NNW 2.6 km/h 6.1 km/h 96% 0.0 mm 0 W/m2
05:06 5.5 °C 4.9 °C 1029.0 hPa Calm   6.1 km/h 96% 0.0 mm 0 W/m2
05:11 5.4 °C 4.8 °C 1029.0 hPa North 2.6 km/h 5.0 km/h 96% 0.0 mm 0 W/m2
05:16 5.4 °C 4.8 °C 1029.0 hPa North 2.6 km/h 5.0 km/h 96% 0.0 mm 0 W/m2
05:18 5.4 °C 4.8 °C 1029.0 hPa North 2.6 km/h 5.0 km/h 96% 0.0 mm 0 W/m2
05:23 5.4 °C 4.8 °C 1029.3 hPa NNW 3.5 km/h 6.1 km/h 96% 0.0 mm 0 W/m2
05:28 5.4 °C 4.8 °C 1029.3 hPa NNW 3.5 km/h 7.2 km/h 96% 0.0 mm 0 W/m2
05:33 5.4 °C 4.8 °C 1029.3 hPa NNW 5.0 km/h 8.7 km/h 96% 0.0 mm 0 W/m2
05:38 5.6 °C 5.2 °C 1029.3 hPa NNW 6.1 km/h 9.7 km/h 97% 0.0 mm 0 W/m2
05:43 5.6 °C 5.2 °C 1029.3 hPa NNW 5.0 km/h 9.7 km/h 97% 0.0 mm 0 W/m2
05:48 5.7 °C 5.3 °C 1029.3 hPa NNW 3.5 km/h 8.7 km/h 97% 0.0 mm 0 W/m2
05:58 5.5 °C 5.1 °C 1029.3 hPa NW 2.6 km/h 6.1 km/h 97% 0.0 mm 0 W/m2
06:03 5.5 °C 5.1 °C 1029.3 hPa NNW 2.6 km/h 6.1 km/h 97% 0.0 mm 0 W/m2
06:08 5.5 °C 5.1 °C 1029.3 hPa NNW 5.0 km/h 8.7 km/h 97% 0.0 mm 0 W/m2
06:13 5.5 °C 5.1 °C 1029.7 hPa NW 2.6 km/h 8.7 km/h 97% 0.0 mm 0 W/m2
06:18 5.5 °C 5.1 °C 1029.7 hPa NW 2.6 km/h 8.7 km/h 97% 0.0 mm 0 W/m2
06:23 5.4 °C 4.9 °C 1029.7 hPa NNW 6.1 km/h 8.7 km/h 97% 0.0 mm 0 W/m2
06:28 5.3 °C 4.9 °C 1029.7 hPa NW 5.0 km/h 9.7 km/h 97% 0.0 mm 0 W/m2
06:33 5.4 °C 4.9 °C 1029.7 hPa NW 5.0 km/h 9.7 km/h 97% 0.0 mm 0 W/m2
06:38 5.5 °C 5.1 °C 1029.7 hPa NW 3.5 km/h 8.7 km/h 97% 0.0 mm 0 W/m2
06:43 5.6 °C 5.2 °C 1029.7 hPa NNW 5.0 km/h 9.7 km/h 97% 0.0 mm 0 W/m2
06:48 5.6 °C 5.2 °C 1029.7 hPa NNW 6.1 km/h 9.7 km/h 97% 0.0 mm 2 W/m2
06:53 5.6 °C 5.2 °C 1029.7 hPa NW 6.1 km/h 11.1 km/h 97% 0.0 mm 4 W/m2
06:58 5.6 °C 5.2 °C 1030.0 hPa NW 8.7 km/h 12.2 km/h 97% 0.0 mm 7 W/m2
07:03 5.6 °C 5.2 °C 1029.7 hPa NW 7.2 km/h 12.2 km/h 97% 0.0 mm 10 W/m2
07:08 5.7 °C 5.3 °C 1029.7 hPa NNW 5.0 km/h 12.2 km/h 97% 0.0 mm 24 W/m2
07:13 5.9 °C 5.4 °C 1029.7 hPa NNW 3.5 km/h 9.7 km/h 97% 0.0 mm 55 W/m2
07:18 6.2 °C 5.6 °C 1029.7 hPa NNW 5.0 km/h 9.7 km/h 96% 0.0 mm 68 W/m2
07:23 6.5 °C 5.9 °C 1029.7 hPa NW 6.1 km/h 9.7 km/h 96% 0.0 mm 81 W/m2
07:28 6.7 °C 5.9 °C 1030.0 hPa NW 7.2 km/h 12.2 km/h 95% 0.0 mm 91 W/m2
07:33 6.9 °C 6.0 °C 1030.0 hPa NW 8.7 km/h 15.8 km/h 94% 0.0 mm 101 W/m2
07:38 7.3 °C 6.1 °C 1030.0 hPa NW 6.1 km/h 15.8 km/h 92% 0.0 mm 112 W/m2
07:43 7.6 °C 6.2 °C 1030.0 hPa NW 2.6 km/h 12.2 km/h 91% 0.0 mm 123 W/m2
07:48 8.0 °C 6.4 °C 1030.4 hPa NW 5.0 km/h 9.7 km/h 90% 0.0 mm 133 W/m2
07:53 8.3 °C 6.4 °C 1030.4 hPa NNW 7.2 km/h 8.7 km/h 88% 0.0 mm 143 W/m2
07:58 8.5 °C 6.4 °C 1030.4 hPa NNW 7.2 km/h 11.1 km/h 87% 0.0 mm 153 W/m2
08:03 8.6 °C 6.4 °C 1030.4 hPa NNW 6.1 km/h 11.1 km/h 86% 0.0 mm 162 W/m2
08:08 8.8 °C 6.6 °C 1030.4 hPa NNW 6.1 km/h 11.1 km/h 86% 0.0 mm 173 W/m2
08:13 9.1 °C 6.6 °C 1030.4 hPa NNW 5.0 km/h 12.2 km/h 84% 0.0 mm 184 W/m2
08:18 9.5 °C 6.9 °C 1030.4 hPa NNW 3.5 km/h 12.2 km/h 84% 0.0 mm 198 W/m2
08:23 9.9 °C 7.0 °C 1030.4 hPa NNW 3.5 km/h 9.7 km/h 82% 0.0 mm 212 W/m2
08:28 10.1 °C 6.8 °C 1030.4 hPa NNW 3.5 km/h 9.7 km/h 80% 0.0 mm 225 W/m2
08:33 10.3 °C 6.8 °C 1030.7 hPa NNW 7.2 km/h 9.7 km/h 79% 0.0 mm 237 W/m2
08:53 11.9 °C 7.6 °C 1030.7 hPa North 3.5 km/h 7.2 km/h 75% 0.0 mm 278 W/m2
08:58 11.9 °C 7.4 °C 1030.7 hPa NNW 6.1 km/h 8.7 km/h 74% 0.0 mm 285 W/m2
09:03 11.8 °C 7.3 °C 1030.7 hPa NW 2.6 km/h 8.7 km/h 74% 0.0 mm 293 W/m2
09:08 12.2 °C 7.7 °C 1030.7 hPa NW 3.5 km/h 8.7 km/h 74% 0.0 mm 298 W/m2
09:13 12.3 °C 7.6 °C 1030.7 hPa NW 3.5 km/h 7.2 km/h 73% 0.0 mm 298 W/m2
09:18 12.3 °C 7.8 °C 1030.4 hPa NW 2.6 km/h 7.2 km/h 74% 0.0 mm 302 W/m2
09:23 12.5 °C 8.0 °C 1030.4 hPa NW 5.0 km/h 8.7 km/h 74% 0.0 mm 304 W/m2
09:28 12.8 °C 8.3 °C 1030.4 hPa NW 3.5 km/h 8.7 km/h 74% 0.0 mm 307 W/m2
09:33 13.4 °C 8.7 °C 1030.4 hPa NW 5.0 km/h 8.7 km/h 73% 0.0 mm 307 W/m2
09:38 14.1 °C 8.5 °C 1030.7 hPa NNW 2.6 km/h 8.7 km/h 69% 0.0 mm 213 W/m2
09:48 15.5 °C 9.2 °C 1030.7 hPa NNW 5.0 km/h 7.2 km/h 66% 0.0 mm 78 W/m2
09:53 15.6 °C 9.1 °C 1030.7 hPa WNW 2.6 km/h 7.2 km/h 65% 0.0 mm 73 W/m2
10:03 15.9 °C 9.3 °C 1030.7 hPa NW 3.5 km/h 7.2 km/h 65% 0.0 mm 71 W/m2
10:08 16.0 °C 8.9 °C 1030.7 hPa NNW 2.6 km/h 6.1 km/h 63% 0.0 mm 72 W/m2
10:13 15.9 °C 8.9 °C 1030.7 hPa NW 2.6 km/h 7.2 km/h 63% 0.0 mm 74 W/m2
10:18 16.0 °C 8.9 °C 1030.7 hPa NW 7.2 km/h 8.7 km/h 63% 0.0 mm 72 W/m2
10:23 15.7 °C 9.2 °C 1030.4 hPa NW 3.5 km/h 8.7 km/h 65% 0.0 mm 71 W/m2
10:29 16.3 °C 9.3 °C 1030.7 hPa North 5.0 km/h 8.7 km/h 63% 0.0 mm 75 W/m2
10:34 16.8 °C 9.7 °C 1030.7 hPa North 3.5 km/h 8.7 km/h 63% 0.0 mm 86 W/m2
10:39 16.8 °C 9.7 °C 1030.4 hPa NNW 3.5 km/h 7.2 km/h 63% 0.0 mm 256 W/m2
10:44 17.2 °C 9.6 °C 1030.4 hPa North 5.0 km/h 9.7 km/h 61% 0.0 mm 344 W/m2
10:49 17.3 °C 9.4 °C 1030.4 hPa NNE 5.0 km/h 11.1 km/h 60% 0.0 mm 112 W/m2
10:54 17.1 °C 9.1 °C 1030.4 hPa NNE 3.5 km/h 11.1 km/h 59% 0.0 mm 360 W/m2
10:59 17.3 °C 9.2 °C 1030.4 hPa North 2.6 km/h 11.1 km/h 59% 0.0 mm 303 W/m2
11:04 17.4 °C 9.1 °C 1030.4 hPa North 2.6 km/h 12.2 km/h 58% 0.0 mm 329 W/m2
11:09 16.8 °C 9.0 °C 1030.0 hPa North 6.1 km/h 12.2 km/h 60% 0.0 mm 313 W/m2
11:14 16.8 °C 9.2 °C 1030.4 hPa NNW 7.2 km/h 11.1 km/h 61% 0.0 mm 382 W/m2
11:19 16.6 °C 8.8 °C 1030.4 hPa NW 7.2 km/h 13.4 km/h 60% 0.0 mm 273 W/m2
11:24 16.5 °C 8.7 °C 1030.0 hPa NNW 5.0 km/h 13.4 km/h 60% 0.0 mm 275 W/m2
11:29 16.6 °C 9.1 °C 1030.0 hPa North 9.7 km/h 13.4 km/h 61% 0.0 mm 239 W/m2
11:34 16.6 °C 9.1 °C 1030.0 hPa North 6.1 km/h 13.4 km/h 61% 0.0 mm 248 W/m2
11:39 16.8 °C 9.2 °C 1030.0 hPa North 1.1 km/h 13.4 km/h 61% 0.0 mm 217 W/m2
11:44 16.6 °C 8.8 °C 1030.0 hPa North 3.5 km/h 12.2 km/h 60% 0.0 mm 213 W/m2
11:49 16.8 °C 9.5 °C 1029.7 hPa NNW 2.6 km/h 12.2 km/h 62% 0.0 mm 218 W/m2
11:54 16.9 °C 9.8 °C 1029.7 hPa North 5.0 km/h 9.7 km/h 63% 0.0 mm 223 W/m2
11:59 16.2 °C 9.6 °C 1029.7 hPa SE 5.0 km/h 8.7 km/h 65% 0.0 mm 190 W/m2
12:04 15.5 °C 10.1 °C 1029.7 hPa SSE 6.1 km/h 11.1 km/h 70% 0.0 mm 300 W/m2
12:09 15.5 °C 10.7 °C 1029.3 hPa SSE 5.0 km/h 11.1 km/h 73% 0.0 mm 332 W/m2
12:14 15.7 °C 10.9 °C 1029.3 hPa SSE 6.1 km/h 9.7 km/h 73% 0.0 mm 403 W/m2
12:19 16.2 °C 11.2 °C 1029.0 hPa SSE 7.2 km/h 11.1 km/h 72% 0.0 mm 134 W/m2
12:24 15.9 °C 11.1 °C 1029.0 hPa SSE 5.0 km/h 11.1 km/h 73% 0.0 mm 439 W/m2
12:29 16.4 °C 10.7 °C 1029.0 hPa SSE 9.7 km/h 11.1 km/h 69% 0.0 mm 484 W/m2
12:34 16.3 °C 9.7 °C 1029.0 hPa South 7.2 km/h 12.2 km/h 65% 0.0 mm 193 W/m2
12:39 15.8 °C 9.2 °C 1028.7 hPa SE 6.1 km/h 15.8 km/h 65% 0.0 mm 211 W/m2
12:44 15.8 °C 9.2 °C 1028.7 hPa ESE 7.2 km/h 15.8 km/h 65% 0.0 mm 251 W/m2
12:49 16.1 °C 9.3 °C 1028.7 hPa ESE 6.1 km/h 14.8 km/h 64% 0.0 mm 421 W/m2
12:54 16.8 °C 9.7 °C 1028.7 hPa SE 5.0 km/h 13.4 km/h 63% 0.0 mm 484 W/m2
12:59 16.6 °C 9.6 °C 1028.7 hPa SSE 5.0 km/h 11.1 km/h 63% 0.0 mm 419 W/m2
13:04 17.2 °C 10.1 °C 1028.3 hPa SSE 5.0 km/h 11.1 km/h 63% 0.0 mm 506 W/m2
13:09 17.4 °C 10.3 °C 1028.3 hPa SSE 3.5 km/h 11.1 km/h 63% 0.0 mm 313 W/m2
13:14 17.5 °C 10.8 °C 1028.3 hPa SSE 5.0 km/h 11.1 km/h 65% 0.0 mm 286 W/m2
13:19 17.9 °C 11.0 °C 1028.0 hPa SSE 3.5 km/h 9.7 km/h 64% 0.0 mm 359 W/m2
13:24 18.2 °C 10.8 °C 1028.3 hPa SE 7.2 km/h 13.4 km/h 62% 0.0 mm 240 W/m2
13:29 17.9 °C 11.4 °C 1028.3 hPa SE 6.1 km/h 13.4 km/h 66% 0.0 mm 144 W/m2
13:34 18.0 °C 11.1 °C 1028.0 hPa ESE 5.0 km/h 11.1 km/h 64% 0.0 mm 196 W/m2
13:39 18.2 °C 10.6 °C 1028.0 hPa ESE 5.0 km/h 9.7 km/h 61% 0.0 mm 268 W/m2
13:44 17.7 °C 10.6 °C 1028.0 hPa ESE 5.0 km/h 12.2 km/h 63% 0.0 mm 166 W/m2
13:49 18.7 °C 11.1 °C 1027.7 hPa SE 3.5 km/h 12.2 km/h 61% 0.0 mm 344 W/m2
13:54 18.8 °C 10.9 °C 1027.7 hPa SE 8.7 km/h 11.1 km/h 60% 0.0 mm 246 W/m2
13:59 18.5 °C 10.3 °C 1027.7 hPa ESE 8.7 km/h 12.2 km/h 59% 0.0 mm 270 W/m2
14:04 18.4 °C 10.5 °C 1027.7 hPa ESE 7.2 km/h 12.2 km/h 60% 0.0 mm 241 W/m2
14:09 18.1 °C 9.9 °C 1027.7 hPa SE 6.1 km/h 15.8 km/h 59% 0.0 mm 313 W/m2
14:14 18.3 °C 10.2 °C 1027.7 hPa SE 7.2 km/h 15.8 km/h 59% 0.0 mm 302 W/m2
14:19 18.1 °C 9.9 °C 1027.7 hPa SE 5.0 km/h 14.8 km/h 59% 0.0 mm 150 W/m2
14:24 18.0 °C 10.1 °C 1027.7 hPa SE 5.0 km/h 12.2 km/h 60% 0.0 mm 304 W/m2
14:29 18.5 °C 10.3 °C 1027.7 hPa SE 7.2 km/h 13.4 km/h 59% 0.0 mm 172 W/m2
14:34 18.0 °C 9.9 °C 1027.3 hPa ESE 3.5 km/h 14.8 km/h 59% 0.0 mm 171 W/m2
14:39 18.1 °C 9.9 °C 1027.3 hPa East 8.7 km/h 14.8 km/h 59% 0.0 mm 154 W/m2
14:44 17.7 °C 9.8 °C 1027.3 hPa ESE 5.0 km/h 13.4 km/h 60% 0.0 mm 141 W/m2
14:49 17.3 °C 9.7 °C 1027.7 hPa SE 3.5 km/h 13.4 km/h 61% 0.0 mm 129 W/m2
14:54 16.9 °C 9.8 °C 1027.3 hPa ESE 5.0 km/h 12.2 km/h 63% 0.0 mm 104 W/m2
14:59 16.5 °C 9.4 °C 1027.3 hPa ESE 5.0 km/h 9.7 km/h 63% 0.0 mm 104 W/m2
15:04 16.4 °C 9.6 °C 1027.3 hPa ESE 5.0 km/h 9.7 km/h 64% 0.0 mm 140 W/m2
15:08 16.4 °C 9.8 °C 1027.0 hPa ESE 5.0 km/h 8.7 km/h 65% 0.0 mm 127 W/m2
15:20 16.4 °C 9.8 °C 1027.3 hPa ESE 1.1 km/h 9.7 km/h 65% 0.0 mm 99 W/m2
15:26 16.4 °C 9.8 °C 1027.3 hPa East 3.5 km/h 9.7 km/h 65% 0.0 mm 82 W/m2
15:31 16.4 °C 9.8 °C 1027.0 hPa ENE 6.1 km/h 9.7 km/h 65% 0.0 mm 72 W/m2
15:35 16.4 °C 10.1 °C 1027.0 hPa Calm   8.7 km/h 66% 0.0 mm 74 W/m2
15:42 16.7 °C 10.1 °C 1027.0 hPa East 6.1 km/h 9.7 km/h 65% 0.0 mm 108 W/m2
15:47 16.6 °C 10.0 °C 1027.0 hPa East 3.5 km/h 9.7 km/h 65% 0.0 mm 89 W/m2
15:52 16.6 °C 10.0 °C 1027.0 hPa East 2.6 km/h 7.2 km/h 65% 0.0 mm 60 W/m2
15:54 16.5 °C 9.9 °C 1027.0 hPa East 5.0 km/h 11.1 km/h 65% 0.0 mm 60 W/m2
15:59 16.5 °C 10.1 °C 1027.3 hPa ENE 1.1 km/h 11.1 km/h 66% 0.0 mm 69 W/m2
16:04 16.6 °C 10.2 °C 1027.0 hPa NNE 6.1 km/h 11.1 km/h 66% 0.0 mm 54 W/m2
16:09 16.6 °C 9.8 °C 1027.0 hPa North 7.2 km/h 18.3 km/h 64% 0.0 mm 71 W/m2
16:15 16.7 °C 9.9 °C 1027.3 hPa NNE 5.0 km/h 18.3 km/h 64% 0.0 mm 80 W/m2
16:20 16.7 °C 9.9 °C 1027.3 hPa North 5.0 km/h 12.2 km/h 64% 0.0 mm 67 W/m2
16:25 16.7 °C 9.9 °C 1027.3 hPa North 6.1 km/h 13.4 km/h 64% 0.0 mm 54 W/m2
16:30 16.6 °C 9.8 °C 1027.3 hPa North 6.1 km/h 13.4 km/h 64% 0.0 mm 49 W/m2
16:35 16.5 °C 9.4 °C 1027.3 hPa North 6.1 km/h 15.8 km/h 63% 0.0 mm 49 W/m2
16:40 16.4 °C 9.3 °C 1027.3 hPa North 7.2 km/h 15.8 km/h 63% 0.0 mm 45 W/m2
16:45 16.3 °C 9.3 °C 1027.3 hPa North 6.1 km/h 14.8 km/h 63% 0.0 mm 39 W/m2
16:50 16.2 °C 8.9 °C 1027.3 hPa North 8.7 km/h 19.5 km/h 62% 0.0 mm 37 W/m2
16:55 16.2 °C 9.2 °C 1027.3 hPa NNW 7.2 km/h 19.5 km/h 63% 0.0 mm 33 W/m2
17:00 16.1 °C 9.1 °C 1027.3 hPa NNW 8.7 km/h 17.2 km/h 63% 0.0 mm 26 W/m2
17:05 16.0 °C 8.9 °C 1027.3 hPa North 11.1 km/h 17.2 km/h 63% 0.0 mm 25 W/m2
17:10 15.9 °C 9.3 °C 1027.3 hPa North 7.2 km/h 15.8 km/h 65% 0.0 mm 19 W/m2
17:14 15.8 °C 9.4 °C 1027.3 hPa North 9.7 km/h 15.8 km/h 66% 0.0 mm 18 W/m2
17:19 15.7 °C 9.4 °C 1027.7 hPa North 12.2 km/h 18.3 km/h 66% 0.0 mm 13 W/m2
17:24 15.6 °C 9.3 °C 1027.3 hPa North 7.2 km/h 18.3 km/h 66% 0.0 mm 8 W/m2
17:29 15.5 °C 9.4 °C 1027.3 hPa North 8.7 km/h 19.5 km/h 67% 0.0 mm 5 W/m2
17:34 15.3 °C 9.4 °C 1027.7 hPa North 12.2 km/h 19.5 km/h 68% 0.0 mm 3 W/m2
17:39 15.3 °C 9.4 °C 1027.3 hPa North 8.7 km/h 18.3 km/h 68% 0.0 mm 0 W/m2
17:44 15.2 °C 9.1 °C 1027.3 hPa North 8.7 km/h 15.8 km/h 67% 0.0 mm 0 W/m2
17:49 15.2 °C 9.3 °C 1027.3 hPa North 6.1 km/h 14.8 km/h 68% 0.0 mm 0 W/m2
17:54 15.1 °C 9.2 °C 1027.3 hPa North 6.1 km/h 14.8 km/h 68% 0.0 mm 0 W/m2
17:59 14.9 °C 9.3 °C 1027.3 hPa North 5.0 km/h 14.8 km/h 69% 0.0 mm 0 W/m2
18:04 14.8 °C 9.4 °C 1027.3 hPa North 8.7 km/h 14.8 km/h 70% 0.0 mm 0 W/m2
18:09 14.7 °C 9.3 °C 1027.3 hPa North 9.7 km/h 14.8 km/h 70% 0.0 mm 0 W/m2
18:14 14.6 °C 9.2 °C 1027.3 hPa North 8.7 km/h 15.8 km/h 70% 0.0 mm 0 W/m2
18:19 14.4 °C 9.0 °C 1027.3 hPa North 7.2 km/h 15.8 km/h 70% 0.0 mm 0 W/m2
18:24 14.2 °C 9.0 °C 1027.3 hPa North 6.1 km/h 12.2 km/h 71% 0.0 mm 0 W/m2
18:29 14.1 °C 8.9 °C 1027.3 hPa North 7.2 km/h 13.4 km/h 71% 0.0 mm 0 W/m2
18:34 14.0 °C 8.8 °C 1027.3 hPa NNW 6.1 km/h 13.4 km/h 71% 0.0 mm 0 W/m2
18:39 13.9 °C 8.9 °C 1027.3 hPa NNW 6.1 km/h 12.2 km/h 72% 0.0 mm 0 W/m2
18:44 13.6 °C 8.8 °C 1027.3 hPa NNW 3.5 km/h 8.7 km/h 73% 0.0 mm 0 W/m2
18:49 13.4 °C 8.9 °C 1027.3 hPa NW 5.0 km/h 7.2 km/h 74% 0.0 mm 0 W/m2
18:54 13.1 °C 8.8 °C 1027.3 hPa NW 5.0 km/h 8.7 km/h 75% 0.0 mm 0 W/m2
19:11 12.7 °C 8.4 °C 1027.3 hPa North 5.0 km/h 8.7 km/h 75% 0.0 mm 0 W/m2
19:16 12.6 °C 8.3 °C 1027.7 hPa North 5.0 km/h 8.7 km/h 75% 0.0 mm 0 W/m2
19:21 12.6 °C 8.3 °C 1027.7 hPa North 3.5 km/h 6.1 km/h 75% 0.0 mm 0 W/m2
19:26 12.5 °C 8.2 °C 1027.7 hPa NNE 3.5 km/h 7.2 km/h 75% 0.0 mm 0 W/m2
19:31 12.4 °C 8.1 °C 1027.7 hPa NNE 5.0 km/h 8.7 km/h 75% 0.0 mm 0 W/m2
19:42 12.6 °C 8.3 °C 1027.3 hPa NNE 8.7 km/h 14.8 km/h 75% 0.0 mm 0 W/m2
19:47 12.7 °C 8.4 °C 1027.3 hPa NNE 9.7 km/h 14.8 km/h 75% 0.0 mm 0 W/m2
19:52 12.7 °C 8.4 °C 1027.3 hPa North 8.7 km/h 14.8 km/h 75% 0.0 mm 0 W/m2
19:57 12.7 °C 8.4 °C 1027.3 hPa NNW 6.1 km/h 15.8 km/h 75% 0.0 mm 0 W/m2
20:02 12.7 °C 8.4 °C 1027.3 hPa North 7.2 km/h 15.8 km/h 75% 0.0 mm 0 W/m2
20:07 12.7 °C 8.4 °C 1027.3 hPa North 6.1 km/h 15.8 km/h 75% 0.0 mm 0 W/m2
20:12 12.7 °C 8.2 °C 1027.3 hPa North 9.7 km/h 15.8 km/h 74% 0.0 mm 0 W/m2
20:17 12.7 °C 8.2 °C 1027.7 hPa North 7.2 km/h 15.8 km/h 74% 0.0 mm 0 W/m2
20:22 12.7 °C 8.2 °C 1027.3 hPa North 9.7 km/h 18.3 km/h 74% 0.0 mm 0 W/m2
20:27 12.7 °C 8.2 °C 1027.3 hPa North 7.2 km/h 18.3 km/h 74% 0.0 mm 0 W/m2
20:32 12.7 °C 8.0 °C 1027.3 hPa NNW 7.2 km/h 18.3 km/h 73% 0.0 mm 0 W/m2
20:37 12.6 °C 7.9 °C 1027.3 hPa North 6.1 km/h 14.8 km/h 73% 0.0 mm 0 W/m2
20:42 12.4 °C 7.7 °C 1027.3 hPa North 7.2 km/h 12.2 km/h 73% 0.0 mm 0 W/m2
20:47 12.4 °C 7.7 °C 1027.3 hPa North 7.2 km/h 12.2 km/h 73% 0.0 mm 0 W/m2
20:53 12.3 °C 7.6 °C 1027.3 hPa North 6.1 km/h 11.1 km/h 73% 0.0 mm 0 W/m2
20:58 12.2 °C 7.5 °C 1027.3 hPa North 5.0 km/h 11.1 km/h 73% 0.0 mm 0 W/m2
21:03 12.1 °C 7.6 °C 1027.3 hPa North 5.0 km/h 11.1 km/h 74% 0.0 mm 0 W/m2
21:08 12.0 °C 7.5 °C 1027.0 hPa North 6.1 km/h 11.1 km/h 74% 0.0 mm 0 W/m2
21:13 11.8 °C 7.7 °C 1027.0 hPa North 5.0 km/h 11.1 km/h 76% 0.0 mm 0 W/m2
21:18 11.7 °C 7.6 °C 1027.3 hPa North 6.1 km/h 11.1 km/h 76% 0.0 mm 0 W/m2
21:23 11.6 °C 7.7 °C 1027.3 hPa North 5.0 km/h 11.1 km/h 77% 0.0 mm 0 W/m2
21:28 11.7 °C 7.8 °C 1027.3 hPa North 6.1 km/h 9.7 km/h 77% 0.0 mm 0 W/m2
21:33 11.6 °C 7.7 °C 1027.3 hPa NNW 7.2 km/h 11.1 km/h 77% 0.0 mm 0 W/m2
21:38 11.5 °C 7.8 °C 1027.3 hPa NW 3.5 km/h 13.4 km/h 78% 0.0 mm 0 W/m2
21:43 11.3 °C 7.6 °C 1027.3 hPa NW 2.6 km/h 13.4 km/h 78% 0.0 mm 0 W/m2
21:48 10.9 °C 7.6 °C 1027.3 hPa NW 7.2 km/h 8.7 km/h 80% 0.0 mm 0 W/m2
21:53 10.8 °C 7.7 °C 1027.3 hPa NW 5.0 km/h 8.7 km/h 81% 0.0 mm 0 W/m2
21:58 10.7 °C 7.8 °C 1027.3 hPa NW 5.0 km/h 13.4 km/h 82% 0.0 mm 0 W/m2
22:03 10.6 °C 7.8 °C 1027.0 hPa NW 5.0 km/h 13.4 km/h 83% 0.0 mm 0 W/m2
22:08 10.4 °C 7.7 °C 1027.3 hPa NNW 6.1 km/h 11.1 km/h 83% 0.0 mm 0 W/m2
22:13 10.9 °C 8.1 °C 1027.3 hPa North 8.7 km/h 13.4 km/h 83% 0.0 mm 0 W/m2
22:18 11.5 °C 8.0 °C 1027.3 hPa North 7.2 km/h 15.8 km/h 79% 0.0 mm 0 W/m2
22:23 11.5 °C 7.8 °C 1027.0 hPa North 8.7 km/h 15.8 km/h 78% 0.0 mm 0 W/m2
22:28 11.5 °C 7.6 °C 1027.0 hPa North 8.7 km/h 14.8 km/h 77% 0.0 mm 0 W/m2
22:33 11.4 °C 7.5 °C 1027.0 hPa North 6.1 km/h 14.8 km/h 77% 0.0 mm 0 W/m2
22:38 11.3 °C 7.4 °C 1027.3 hPa North 8.7 km/h 12.2 km/h 77% 0.0 mm 0 W/m2
22:43 11.4 °C 7.3 °C 1027.0 hPa NNE 7.2 km/h 12.2 km/h 76% 0.0 mm 0 W/m2
22:48 11.4 °C 7.3 °C 1027.0 hPa NNE 6.1 km/h 13.4 km/h 76% 0.0 mm 0 W/m2
22:53 11.5 °C 7.4 °C 1027.0 hPa NNE 7.2 km/h 17.2 km/h 76% 0.0 mm 0 W/m2
22:58 11.6 °C 7.5 °C 1027.0 hPa NNE 6.1 km/h 17.2 km/h 76% 0.0 mm 0 W/m2
23:03 11.7 °C 7.6 °C 1027.0 hPa NNE 7.2 km/h 15.8 km/h 76% 0.0 mm 0 W/m2
23:08 11.6 °C 7.5 °C 1027.0 hPa North 9.7 km/h 15.8 km/h 76% 0.0 mm 0 W/m2
23:13 11.5 °C 7.6 °C 1027.0 hPa North 8.7 km/h 15.8 km/h 77% 0.0 mm 0 W/m2
23:18 11.4 °C 7.5 °C 1027.0 hPa North 7.2 km/h 14.8 km/h 77% 0.0 mm 0 W/m2
23:23 11.3 °C 7.4 °C 1027.0 hPa NNW 6.1 km/h 14.8 km/h 77% 0.0 mm 0 W/m2
23:28 11.1 °C 7.4 °C 1027.0 hPa NNW 6.1 km/h 14.8 km/h 78% 0.0 mm 0 W/m2
23:33 10.9 °C 7.4 °C 1027.0 hPa North 7.2 km/h 12.2 km/h 79% 0.0 mm 0 W/m2
23:38 10.8 °C 7.5 °C 1027.0 hPa North 6.1 km/h 12.2 km/h 80% 0.0 mm 0 W/m2
23:43 10.6 °C 7.5 °C 1027.0 hPa North 5.0 km/h 12.2 km/h 81% 0.0 mm 0 W/m2
23:48 10.5 °C 7.4 °C 1027.0 hPa North 5.0 km/h 9.7 km/h 81% 0.0 mm 0 W/m2
23:53 10.5 °C 7.4 °C 1027.0 hPa North 5.0 km/h 9.7 km/h 81% 0.0 mm 0 W/m2
23:58 10.5 °C 7.6 °C 1027.0 hPa North 8.7 km/h 13.4 km/h 82% 0.0 mm 0 W/m2
Northern Hawkes Bay. New Zealand Historic Data
Compliments of Weather Underground - 2 mb